Time,TemperatureF,DewpointF,PressureIn,WindDirection,WindDirectionDegrees,WindSpeedMPH,WindSpeedGustMPH,Humidity,HourlyPrecipIn,Conditions,Clouds,dailyrainin,SoftwareType,DateUTC
2013-05-26 00:03:00,51.0,41.0,29.97,NE,34,2.0,10.0,69,0.00,,,0.12,,2013-05-26 04:03:00,
2013-05-26 00:12:00,51.0,41.0,29.97,NE,34,2.0,10.0,69,0.00,,,0.12,,2013-05-26 04:12:00,
2013-05-26 00:23:00,51.0,41.0,29.97,West,263,1.0,6.0,69,0.00,,,0.11,,2013-05-26 04:23:00,
2013-05-26 00:33:00,50.0,40.0,29.96,NE,36,2.0,7.0,69,0.00,,,0.10,,2013-05-26 04:33:00,
2013-05-26 00:42:00,50.0,40.0,29.96,NE,36,2.0,7.0,69,0.00,,,0.10,,2013-05-26 04:42:00,
2013-05-26 00:52:00,50.0,40.0,29.96,NNW,333,2.0,12.0,69,0.00,,,0.10,,2013-05-26 04:52:00,
2013-05-26 01:02:00,49.0,39.0,29.97,NE,45,2.0,9.0,68,0.00,,,0.08,,2013-05-26 05:02:00,
2013-05-26 01:12:00,49.0,39.0,29.97,NE,45,2.0,9.0,68,0.00,,,0.08,,2013-05-26 05:12:00,
2013-05-26 01:22:00,49.0,39.0,29.97,SSW,197,2.0,8.0,68,0.00,,,0.07,,2013-05-26 05:22:00,
2013-05-26 01:32:00,49.0,39.0,29.97,North,355,2.0,7.0,69,0.00,,,0.06,,2013-05-26 05:32:00,
2013-05-26 01:42:00,49.0,39.0,29.97,North,355,2.0,7.0,69,0.00,,,0.06,,2013-05-26 05:42:00,
2013-05-26 01:52:00,49.0,40.0,29.97,NE,40,2.0,12.0,70,0.00,,,0.06,,2013-05-26 05:52:00,
2013-05-26 02:01:00,49.0,40.0,29.97,ENE,72,1.0,8.0,70,0.00,,,0.05,,2013-05-26 06:01:00,
2013-05-26 02:12:00,49.0,40.0,29.97,ENE,72,1.0,8.0,70,0.00,,,0.05,,2013-05-26 06:12:00,
2013-05-26 02:22:00,49.0,40.0,29.96,SW,214,2.0,12.0,70,0.00,,,0.05,,2013-05-26 06:22:00,
2013-05-26 02:32:00,49.0,40.0,29.96,SSW,194,2.0,9.0,71,0.00,,,0.05,,2013-05-26 06:32:00,
2013-05-26 02:42:00,49.0,40.0,29.96,SSW,194,2.0,9.0,71,0.00,,,0.05,,2013-05-26 06:42:00,
2013-05-26 02:52:00,49.0,40.0,29.96,West,276,2.0,10.0,71,0.00,,,0.05,,2013-05-26 06:52:00,
2013-05-26 03:02:00,49.0,40.0,29.95,NE,52,1.0,10.0,71,0.00,,,0.05,,2013-05-26 07:02:00,
2013-05-26 03:11:00,49.0,40.0,29.95,NE,52,1.0,10.0,71,0.00,,,0.05,,2013-05-26 07:11:00,
2013-05-26 03:22:00,49.0,40.0,29.95,NE,47,1.0,7.0,72,0.00,,,0.05,,2013-05-26 07:22:00,
2013-05-26 03:32:00,49.0,40.0,29.95,NE,38,0.0,5.0,72,0.00,,,0.05,,2013-05-26 07:32:00,
2013-05-26 03:42:00,49.0,40.0,29.95,NE,38,0.0,5.0,72,0.00,,,0.05,,2013-05-26 07:42:00,
2013-05-26 03:52:00,49.0,40.0,29.95,NE,48,1.0,7.0,72,0.00,,,0.05,,2013-05-26 07:52:00,
2013-05-26 04:01:00,48.0,39.0,29.95,ENE,62,2.0,10.0,71,0.00,,,0.05,,2013-05-26 08:01:00,
2013-05-26 04:12:00,48.0,39.0,29.95,ENE,62,2.0,10.0,71,0.00,,,0.05,,2013-05-26 08:12:00,
2013-05-26 04:21:00,49.0,40.0,29.95,SSW,197,1.0,6.0,72,0.00,,,0.05,,2013-05-26 08:21:00,
2013-05-26 04:32:00,49.0,40.0,29.96,WSW,243,1.0,6.0,72,0.00,,,0.05,,2013-05-26 08:32:00,
2013-05-26 04:42:00,49.0,40.0,29.96,WSW,243,1.0,6.0,72,0.00,,,0.05,,2013-05-26 08:42:00,
2013-05-26 04:53:00,49.0,40.0,29.96,SW,215,1.0,6.0,72,0.00,,,0.05,,2013-05-26 08:53:00,
2013-05-26 05:01:00,48.0,39.0,29.97,NE,54,2.0,9.0,72,0.00,,,0.05,,2013-05-26 09:01:00,
2013-05-26 05:11:00,48.0,40.0,29.98,SSW,195,1.0,6.0,73,0.00,,,0.05,,2013-05-26 09:11:00,
2013-05-26 05:21:00,48.0,40.0,29.98,SSW,195,1.0,6.0,73,0.00,,,0.05,,2013-05-26 09:21:00,
2013-05-26 05:33:00,48.0,39.0,29.98,South,178,0.0,3.0,72,0.00,,,0.05,,2013-05-26 09:33:00,
2013-05-26 05:43:00,48.0,39.0,29.98,South,178,0.0,3.0,72,0.00,,,0.05,,2013-05-26 09:43:00,
2013-05-26 05:52:00,48.0,40.0,29.98,South,183,2.0,8.0,73,0.00,,,0.05,,2013-05-26 09:52:00,
2013-05-26 06:03:00,48.0,39.0,29.99,SSW,199,1.0,8.0,72,0.00,,,0.05,,2013-05-26 10:03:00,
2013-05-26 06:12:00,48.0,39.0,29.99,SSW,199,1.0,8.0,72,0.00,,,0.05,,2013-05-26 10:12:00,
2013-05-26 06:23:00,49.0,40.0,29.99,South,187,2.0,10.0,72,0.00,,,0.05,,2013-05-26 10:23:00,
2013-05-26 06:33:00,49.0,40.0,29.99,SSW,202,1.0,7.0,70,0.00,,,0.05,,2013-05-26 10:33:00,
2013-05-26 06:42:00,49.0,40.0,29.99,SSW,202,1.0,7.0,70,0.00,,,0.05,,2013-05-26 10:42:00,
2013-05-26 06:52:00,49.0,40.0,29.99,South,185,2.0,12.0,70,0.00,,,0.05,,2013-05-26 10:52:00,
2013-05-26 07:03:00,50.0,40.0,30.01,SE,127,2.0,8.0,69,0.00,,,0.05,,2013-05-26 11:03:00,
2013-05-26 07:11:00,50.0,40.0,30.01,SE,127,2.0,8.0,69,0.00,,,0.05,,2013-05-26 11:11:00,
2013-05-26 07:22:00,50.0,41.0,30.01,SSW,195,0.0,7.0,70,0.00,,,0.05,,2013-05-26 11:22:00,
2013-05-26 07:32:00,50.0,41.0,30.01,West,263,1.0,8.0,70,0.00,,,0.05,,2013-05-26 11:32:00,
2013-05-26 07:42:00,50.0,41.0,30.01,West,263,1.0,8.0,70,0.00,,,0.05,,2013-05-26 11:42:00,
2013-05-26 07:52:00,50.0,40.0,30.01,SSW,206,1.0,9.0,69,0.00,,,0.04,,2013-05-26 11:52:00,
2013-05-26 08:02:00,51.0,41.0,30.01,SSE,158,1.0,7.0,68,0.00,,,0.03,,2013-05-26 12:02:00,
2013-05-26 08:12:00,51.0,41.0,30.01,SSE,158,1.0,7.0,68,0.00,,,0.03,,2013-05-26 12:12:00,
2013-05-26 08:22:00,52.0,41.0,30.01,South,172,4.0,12.0,67,0.00,,,0.03,,2013-05-26 12:22:00,
2013-05-26 08:32:00,53.0,41.0,30.01,South,182,2.0,10.0,64,0.00,,,0.02,,2013-05-26 12:32:00,
2013-05-26 08:42:00,53.0,41.0,30.01,South,182,2.0,10.0,64,0.00,,,0.02,,2013-05-26 12:42:00,
2013-05-26 08:52:00,54.0,42.0,30.02,NW,319,1.0,7.0,63,0.00,,,0.02,,2013-05-26 12:52:00,
2013-05-26 09:02:00,54.0,41.0,30.01,SSW,210,2.0,6.0,61,0.00,,,0.02,,2013-05-26 13:02:00,
2013-05-26 09:11:00,54.0,41.0,30.01,SSW,210,2.0,6.0,61,0.00,,,0.02,,2013-05-26 13:11:00,
2013-05-26 09:22:00,55.0,42.0,30.02,North,353,2.0,7.0,61,0.00,,,0.02,,2013-05-26 13:22:00,
2013-05-26 09:32:00,56.0,41.0,30.01,SW,225,1.0,7.0,58,0.00,,,0.02,,2013-05-26 13:32:00,
2013-05-26 09:42:00,56.0,41.0,30.01,SW,225,1.0,7.0,58,0.00,,,0.02,,2013-05-26 13:42:00,
2013-05-26 09:52:00,57.0,42.0,30.01,SSW,211,1.0,8.0,57,0.00,,,0.02,,2013-05-26 13:52:00,
2013-05-26 10:02:00,58.0,41.0,30.01,SSW,197,3.0,7.0,54,0.00,,,0.02,,2013-05-26 14:02:00,
2013-05-26 10:11:00,58.0,41.0,30.01,SSW,197,3.0,7.0,54,0.00,,,0.02,,2013-05-26 14:11:00,
2013-05-26 10:22:00,58.0,41.0,30.01,WSW,241,3.0,10.0,54,0.00,,,0.02,,2013-05-26 14:22:00,
2013-05-26 10:32:00,59.0,41.0,30.01,SSE,156,2.0,9.0,51,0.00,,,0.02,,2013-05-26 14:32:00,
2013-05-26 10:42:00,59.0,41.0,30.01,SSE,156,2.0,9.0,51,0.00,,,0.02,,2013-05-26 14:42:00,
2013-05-26 10:52:00,60.0,41.0,30.01,WNW,298,2.0,8.0,49,0.00,,,0.02,,2013-05-26 14:52:00,
2013-05-26 11:02:00,60.0,41.0,30.01,WSW,242,3.0,12.0,49,0.00,,,0.02,,2013-05-26 15:02:00,
2013-05-26 11:12:00,60.0,41.0,30.01,WSW,242,3.0,12.0,49,0.00,,,0.02,,2013-05-26 15:12:00,
2013-05-26 11:22:00,60.0,41.0,30.01,NW,326,1.0,12.0,49,0.00,,,0.02,,2013-05-26 15:22:00,
2013-05-26 11:33:00,61.0,41.0,30.01,SSW,200,2.0,9.0,48,0.00,,,0.02,,2013-05-26 15:33:00,
2013-05-26 11:43:00,61.0,41.0,30.01,SSW,200,2.0,9.0,48,0.00,,,0.02,,2013-05-26 15:43:00,
2013-05-26 11:53:00,61.0,41.0,30.01,NNE,28,3.0,10.0,47,0.00,,,0.02,,2013-05-26 15:53:00,
2013-05-26 12:03:00,60.0,40.0,30.02,NW,306,3.0,12.0,47,0.00,,,0.01,,2013-05-26 16:03:00,
2013-05-26 12:12:00,60.0,40.0,30.02,NW,306,3.0,12.0,47,0.00,,,0.01,,2013-05-26 16:12:00,
2013-05-26 12:23:00,61.0,41.0,30.02,NW,324,2.0,8.0,47,0.00,,,0.01,,2013-05-26 16:23:00,
2013-05-26 12:33:00,62.0,40.0,30.02,SSE,166,2.0,10.0,45,0.00,,,0.01,,2013-05-26 16:33:00,
2013-05-26 12:42:00,62.0,40.0,30.02,SSE,166,2.0,10.0,45,0.00,,,0.01,,2013-05-26 16:42:00,
2013-05-26 12:52:00,63.0,40.0,30.02,NNE,26,2.0,12.0,42,0.00,,,0.01,,2013-05-26 16:52:00,
2013-05-26 13:02:00,64.0,40.0,30.02,ENE,68,5.0,12.0,41,0.00,,,0.00,,2013-05-26 17:02:00,
2013-05-26 13:11:00,64.0,40.0,30.02,ENE,68,5.0,12.0,41,0.00,,,0.00,,2013-05-26 17:11:00,
2013-05-26 13:22:00,63.0,39.0,30.02,SW,216,2.0,12.0,41,0.00,,,0.00,,2013-05-26 17:22:00,
2013-05-26 13:32:00,64.0,39.0,30.01,ENE,72,2.0,8.0,39,0.00,,,0.00,,2013-05-26 17:32:00,
2013-05-26 13:42:00,64.0,39.0,30.01,ENE,72,2.0,8.0,39,0.00,,,0.00,,2013-05-26 17:42:00,
2013-05-26 13:52:00,65.0,40.0,30.01,ENE,73,1.0,7.0,40,0.00,,,0.00,,2013-05-26 17:52:00,
2013-05-26 14:01:00,66.0,39.0,30.01,SW,226,2.0,7.0,37,0.00,,,0.00,,2013-05-26 18:01:00,
2013-05-26 14:12:00,66.0,39.0,30.01,SW,226,2.0,7.0,37,0.00,,,0.00,,2013-05-26 18:12:00,
2013-05-26 14:22:00,66.0,38.0,30.01,NW,305,3.0,12.0,36,0.00,,,0.00,,2013-05-26 18:22:00,
2013-05-26 14:32:00,67.0,38.0,30.01,SW,221,3.0,12.0,34,0.00,,,0.00,,2013-05-26 18:32:00,
2013-05-26 14:42:00,67.0,38.0,30.01,SW,221,3.0,12.0,34,0.00,,,0.00,,2013-05-26 18:42:00,
2013-05-26 14:52:00,67.0,38.0,30.01,North,349,3.0,9.0,34,0.00,,,0.00,,2013-05-26 18:52:00,
2013-05-26 15:01:00,67.0,38.0,30.01,ESE,104,1.0,9.0,35,0.00,,,0.00,,2013-05-26 19:01:00,
2013-05-26 15:11:00,67.0,38.0,30.01,ESE,104,1.0,9.0,35,0.00,,,0.00,,2013-05-26 19:11:00,
2013-05-26 15:22:00,66.0,38.0,30.01,SSW,204,2.0,12.0,36,0.00,,,0.00,,2013-05-26 19:22:00,
2013-05-26 15:32:00,66.0,38.0,30.01,NNW,328,2.0,7.0,35,0.00,,,0.00,,2013-05-26 19:32:00,
2013-05-26 15:42:00,66.0,38.0,30.01,NNW,328,2.0,7.0,35,0.00,,,0.00,,2013-05-26 19:42:00,
2013-05-26 15:52:00,66.0,39.0,30.01,NE,35,1.0,10.0,37,0.00,,,0.00,,2013-05-26 19:52:00,
2013-05-26 16:02:00,66.0,38.0,30.02,NNE,22,2.0,10.0,35,0.00,,,0.00,,2013-05-26 20:02:00,
2013-05-26 16:11:00,66.0,38.0,30.02,NNE,22,2.0,10.0,35,0.00,,,0.00,,2013-05-26 20:11:00,
2013-05-26 16:22:00,66.0,38.0,30.02,NNE,31,2.0,10.0,35,0.00,,,0.00,,2013-05-26 20:22:00,
2013-05-26 16:32:00,67.0,38.0,30.02,NNE,32,2.0,10.0,34,0.00,,,0.00,,2013-05-26 20:32:00,
2013-05-26 16:42:00,67.0,38.0,30.02,NNE,32,2.0,10.0,34,0.00,,,0.00,,2013-05-26 20:42:00,
2013-05-26 16:52:00,68.0,39.0,30.02,NNE,17,2.0,9.0,34,0.00,,,0.00,,2013-05-26 20:52:00,
2013-05-26 17:02:00,67.0,38.0,30.03,NNE,21,2.0,12.0,35,0.00,,,0.00,,2013-05-26 21:02:00,
2013-05-26 17:11:00,67.0,38.0,30.03,NNE,21,2.0,12.0,35,0.00,,,0.00,,2013-05-26 21:11:00,
2013-05-26 17:22:00,68.0,39.0,30.03,NNE,25,1.0,9.0,35,0.00,,,0.00,,2013-05-26 21:22:00,
2013-05-26 17:33:00,67.0,38.0,30.03,North,9,1.0,6.0,35,0.00,,,0.00,,2013-05-26 21:33:00,
2013-05-26 17:43:00,67.0,38.0,30.03,North,9,1.0,6.0,35,0.00,,,0.00,,2013-05-26 21:43:00,
2013-05-26 17:53:00,67.0,38.0,30.04,North,355,1.0,7.0,35,0.00,,,0.00,,2013-05-26 21:53:00,
2013-05-26 18:03:00,67.0,39.0,30.04,WNW,290,1.0,8.0,36,0.00,,,0.00,,2013-05-26 22:03:00,
2013-05-26 18:12:00,67.0,39.0,30.04,WNW,290,1.0,8.0,36,0.00,,,0.00,,2013-05-26 22:12:00,
2013-05-26 18:23:00,67.0,39.0,30.05,NNE,26,3.0,7.0,36,0.00,,,0.00,,2013-05-26 22:23:00,
2013-05-26 18:33:00,66.0,38.0,30.06,NNW,336,2.0,12.0,36,0.00,,,0.00,,2013-05-26 22:33:00,
2013-05-26 18:42:00,66.0,38.0,30.06,North,350,2.0,5.0,36,0.00,,,0.00,,2013-05-26 22:42:00,
2013-05-26 18:53:00,66.0,38.0,30.06,North,350,2.0,5.0,36,0.00,,,0.00,,2013-05-26 22:53:00,
2013-05-26 19:02:00,66.0,38.0,30.07,NNE,14,1.0,5.0,36,0.00,,,0.00,,2013-05-26 23:02:00,
2013-05-26 19:12:00,66.0,38.0,30.07,NNE,14,1.0,5.0,36,0.00,,,0.00,,2013-05-26 23:12:00,
2013-05-26 19:22:00,65.0,37.0,30.08,NE,43,1.0,12.0,36,0.00,,,0.00,,2013-05-26 23:22:00,
2013-05-26 19:32:00,65.0,37.0,30.09,NNW,339,1.0,6.0,36,0.00,,,0.00,,2013-05-26 23:32:00,
2013-05-26 19:43:00,65.0,37.0,30.09,NNW,339,1.0,6.0,36,0.00,,,0.00,,2013-05-26 23:43:00,
2013-05-26 19:52:00,65.0,37.0,30.09,NNE,26,3.0,7.0,36,0.00,,,0.00,,2013-05-26 23:52:00,
2013-05-26 20:02:00,64.0,37.0,30.09,NE,46,1.0,6.0,36,0.00,,,0.00,,2013-05-27 00:02:00,
2013-05-26 20:11:00,64.0,37.0,30.09,NE,46,1.0,6.0,36,0.00,,,0.00,,2013-05-27 00:11:00,
2013-05-26 20:22:00,64.0,37.0,30.10,WNW,286,1.0,6.0,36,0.00,,,0.00,,2013-05-27 00:22:00,
2013-05-26 20:32:00,63.0,36.0,30.11,NE,34,1.0,5.0,37,0.00,,,0.00,,2013-05-27 00:32:00,
2013-05-26 20:42:00,63.0,36.0,30.11,NE,34,1.0,5.0,37,0.00,,,0.00,,2013-05-27 00:42:00,
2013-05-26 20:52:00,63.0,36.0,30.11,NNE,13,2.0,6.0,37,0.00,,,0.00,,2013-05-27 00:52:00,
2013-05-26 21:01:00,63.0,38.0,30.12,West,278,0.0,3.0,39,0.00,,,0.00,,2013-05-27 01:01:00,
2013-05-26 21:11:00,63.0,38.0,30.12,West,278,0.0,3.0,39,0.00,,,0.00,,2013-05-27 01:11:00,
2013-05-26 21:22:00,62.0,36.0,30.13,NE,43,1.0,5.0,38,0.00,,,0.00,,2013-05-27 01:22:00,
2013-05-26 21:32:00,62.0,38.0,30.14,NNW,343,0.0,1.0,41,0.00,,,0.00,,2013-05-27 01:32:00,
2013-05-26 21:42:00,61.0,38.0,30.15,North,355,0.0,3.0,43,0.00,,,0.00,,2013-05-27 01:42:00,
2013-05-26 21:52:00,61.0,38.0,30.15,North,355,0.0,3.0,43,0.00,,,0.00,,2013-05-27 01:52:00,
2013-05-26 22:02:00,61.0,38.0,30.16,NW,316,0.0,2.0,42,0.00,,,0.00,,2013-05-27 02:02:00,
2013-05-26 22:11:00,61.0,38.0,30.16,NW,316,0.0,2.0,42,0.00,,,0.00,,2013-05-27 02:11:00,
2013-05-26 22:22:00,61.0,39.0,30.16,West,263,0.0,2.0,44,0.00,,,0.00,,2013-05-27 02:22:00,
2013-05-26 22:32:00,60.0,37.0,30.18,NNW,345,0.0,3.0,43,0.00,,,0.00,,2013-05-27 02:32:00,
2013-05-26 22:42:00,60.0,37.0,30.18,NNW,345,0.0,3.0,43,0.00,,,0.00,,2013-05-27 02:42:00,
2013-05-26 22:52:00,60.0,37.0,30.18,North,350,0.0,5.0,42,0.00,,,0.00,,2013-05-27 02:52:00,
2013-05-26 23:02:00,59.0,37.0,30.18,North,355,0.0,1.0,44,0.00,,,0.00,,2013-05-27 03:02:00,
2013-05-26 23:11:00,59.0,37.0,30.18,North,355,0.0,1.0,44,0.00,,,0.00,,2013-05-27 03:11:00,
2013-05-26 23:21:00,59.0,38.0,30.19,North,355,0.0,1.0,45,0.00,,,0.00,,2013-05-27 03:21:00,
2013-05-26 23:33:00,58.0,39.0,30.19,North,355,0.0,0.0,49,0.00,,,0.00,,2013-05-27 03:33:00,
2013-05-26 23:43:00,58.0,39.0,30.19,North,355,0.0,0.0,49,0.00,,,0.00,,2013-05-27 03:43:00,
2013-05-26 23:53:00,58.0,39.0,30.19,North,355,0.0,0.0,50,0.00,,,0.00,,2013-05-27 03:53:00,